createdAt,value
2019-01-29T00:00:30.894Z,0
2019-01-29T00:01:11.506Z,0
2019-01-29T00:01:52.098Z,0
2019-01-29T00:02:32.697Z,0
2019-01-29T00:03:13.313Z,0
2019-01-29T00:03:53.922Z,0
2019-01-29T00:04:34.517Z,0
2019-01-29T00:05:15.137Z,0
2019-01-29T00:05:55.749Z,0
2019-01-29T00:06:36.376Z,0
2019-01-29T00:07:16.986Z,0
2019-01-29T00:07:57.623Z,0
2019-01-29T00:08:38.244Z,0
2019-01-29T00:09:18.884Z,0
2019-01-29T00:09:59.498Z,0
2019-01-29T00:10:40.106Z,0
2019-01-29T00:11:20.734Z,0
2019-01-29T00:12:01.370Z,0
2019-01-29T00:12:41.972Z,0
2019-01-29T00:13:22.578Z,0
2019-01-29T00:14:03.181Z,0
2019-01-29T00:14:43.808Z,0
2019-01-29T00:15:24.427Z,0
2019-01-29T00:16:05.036Z,0
2019-01-29T00:16:45.636Z,0
2019-01-29T00:17:26.273Z,0
2019-01-29T00:18:06.890Z,0
2019-01-29T00:18:47.500Z,0
2019-01-29T00:19:28.104Z,0
2019-01-29T00:20:08.790Z,0
2019-01-29T00:20:49.408Z,0
2019-01-29T00:21:30.020Z,0
2019-01-29T00:22:10.633Z,0
2019-01-29T00:22:51.270Z,0
2019-01-29T00:23:31.880Z,0
2019-01-29T00:24:12.474Z,0
2019-01-29T00:24:53.082Z,0
2019-01-29T00:25:33.674Z,0
2019-01-29T00:26:14.266Z,0
2019-01-29T00:26:54.874Z,0
2019-01-29T00:27:35.478Z,0
2019-01-29T00:28:16.066Z,0
2019-01-29T00:28:56.650Z,0
2019-01-29T00:29:37.239Z,0
2019-01-29T00:30:17.854Z,0
2019-01-29T00:30:58.458Z,0
2019-01-29T00:31:39.075Z,0
2019-01-29T00:32:19.691Z,0
2019-01-29T00:33:00.298Z,0
2019-01-29T00:33:40.903Z,0
2019-01-29T00:34:21.523Z,0
2019-01-29T00:35:02.118Z,0
2019-01-29T00:35:42.747Z,0
2019-01-29T00:36:23.436Z,0
2019-01-29T00:37:04.060Z,0
2019-01-29T00:37:44.679Z,0
2019-01-29T00:38:25.282Z,0
2019-01-29T00:39:05.960Z,0
2019-01-29T00:39:46.561Z,0
2019-01-29T00:40:27.168Z,0
2019-01-29T00:41:07.772Z,0
2019-01-29T00:41:48.440Z,0
2019-01-29T00:42:29.045Z,0
2019-01-29T00:43:09.644Z,0
2019-01-29T00:43:50.250Z,0
2019-01-29T00:44:30.844Z,0
2019-01-29T00:45:11.476Z,0
2019-01-29T00:45:52.068Z,0
2019-01-29T00:46:32.684Z,0
2019-01-29T00:47:13.299Z,0
2019-01-29T00:47:53.905Z,0
2019-01-29T00:48:34.493Z,0
2019-01-29T00:49:15.088Z,0
2019-01-29T00:49:55.690Z,0
2019-01-29T00:50:36.293Z,0
2019-01-29T00:51:16.905Z,0
2019-01-29T00:51:57.504Z,0
2019-01-29T00:52:41.976Z,0
2019-01-29T00:53:18.752Z,0
2019-01-29T00:53:59.363Z,0
2019-01-29T00:54:39.970Z,0
2019-01-29T00:55:20.617Z,0
2019-01-29T00:56:01.276Z,0
2019-01-29T00:56:41.874Z,0
2019-01-29T00:57:22.489Z,0
2019-01-29T00:58:03.096Z,0
2019-01-29T00:58:43.693Z,0
2019-01-29T00:59:24.283Z,0
2019-01-29T01:00:04.900Z,0
2019-01-29T01:00:45.500Z,0
2019-01-29T01:01:26.094Z,0
2019-01-29T01:02:06.700Z,0
2019-01-29T01:02:47.351Z,0
2019-01-29T01:03:27.952Z,0
2019-01-29T01:04:08.594Z,0
2019-01-29T01:04:49.242Z,0
2019-01-29T01:05:29.834Z,0
2019-01-29T01:06:10.432Z,0
2019-01-29T01:06:51.067Z,0
2019-01-29T01:07:31.668Z,0
2019-01-29T01:08:12.268Z,0
2019-01-29T01:08:52.877Z,0
2019-01-29T01:09:33.464Z,0
2019-01-29T01:10:14.064Z,0
2019-01-29T01:10:54.670Z,0
2019-01-29T01:11:35.278Z,0
2019-01-29T01:12:15.900Z,0
2019-01-29T01:12:56.498Z,0
2019-01-29T01:13:37.090Z,0
2019-01-29T01:14:17.686Z,0
2019-01-29T01:14:58.320Z,0
2019-01-29T01:15:38.937Z,0
2019-01-29T01:16:19.572Z,0
2019-01-29T01:17:00.172Z,0
2019-01-29T01:17:40.758Z,0
2019-01-29T01:18:21.362Z,0
2019-01-29T01:19:01.968Z,0
2019-01-29T01:19:42.580Z,0
2019-01-29T01:20:23.226Z,0
2019-01-29T01:21:03.830Z,0
2019-01-29T01:21:44.436Z,0
2019-01-29T01:22:25.038Z,0
2019-01-29T01:23:05.656Z,0
2019-01-29T01:23:46.284Z,0
2019-01-29T01:24:26.882Z,0
2019-01-29T01:25:07.490Z,0
2019-01-29T01:25:48.097Z,0
2019-01-29T01:26:28.698Z,0
2019-01-29T01:27:09.290Z,0
2019-01-29T01:27:49.896Z,0
2019-01-29T01:28:30.533Z,0
2019-01-29T01:29:11.140Z,0
2019-01-29T01:29:51.738Z,0
2019-01-29T01:30:32.332Z,0
2019-01-29T01:31:12.952Z,0
2019-01-29T01:31:53.564Z,0
2019-01-29T01:32:34.186Z,0
2019-01-29T01:33:15.032Z,0
2019-01-29T01:33:56.084Z,0
2019-01-29T01:34:36.388Z,0
2019-01-29T01:35:17.020Z,0
2019-01-29T01:35:57.620Z,0
2019-01-29T01:36:38.472Z,0
2019-01-29T01:37:19.112Z,0
2019-01-29T01:37:59.738Z,0
2019-01-29T01:38:40.362Z,0
2019-01-29T01:39:20.957Z,0
2019-01-29T01:40:01.564Z,0
2019-01-29T01:40:42.178Z,0
2019-01-29T01:41:22.893Z,0
2019-01-29T01:42:03.514Z,0
2019-01-29T01:42:44.102Z,0
2019-01-29T01:43:24.702Z,0
2019-01-29T01:44:05.311Z,0
2019-01-29T01:44:47.038Z,0
2019-01-29T01:45:27.642Z,0
2019-01-29T01:46:08.244Z,0
2019-01-29T01:46:48.876Z,0
2019-01-29T01:49:09.787Z,0
2019-01-29T01:49:50.418Z,0
2019-01-29T01:50:31.017Z,0
2019-01-29T01:51:11.711Z,0
2019-01-29T01:51:52.198Z,0
2019-01-29T01:52:32.814Z,0
2019-01-29T01:53:13.412Z,0
2019-01-29T01:53:54.186Z,0
2019-01-29T01:54:34.864Z,0
2019-01-29T01:55:15.495Z,0
2019-01-29T01:55:56.093Z,0
2019-01-29T01:56:36.700Z,0
2019-01-29T01:57:17.290Z,0
2019-01-29T01:57:57.884Z,0
2019-01-29T01:58:39.213Z,0
2019-01-29T01:59:19.842Z,0
2019-01-29T02:00:00.435Z,0
2019-01-29T02:00:41.030Z,0
2019-01-29T02:01:21.642Z,0
2019-01-29T02:02:02.273Z,0
2019-01-29T02:02:42.866Z,0
2019-01-29T02:03:23.459Z,0
2019-01-29T02:04:04.098Z,0
2019-01-29T02:04:44.684Z,0
2019-01-29T02:05:25.274Z,0
2019-01-29T02:06:05.874Z,0
2019-01-29T02:06:46.518Z,0
2019-01-29T02:07:27.142Z,0
2019-01-29T02:08:07.732Z,0
2019-01-29T02:08:48.321Z,0
2019-01-29T02:09:28.932Z,0
2019-01-29T02:10:09.524Z,0
2019-01-29T02:10:50.122Z,0
2019-01-29T02:11:30.754Z,0
2019-01-29T02:12:11.350Z,0
2019-01-29T02:12:51.966Z,0
2019-01-29T02:13:32.567Z,0
2019-01-29T02:14:13.154Z,0
2019-01-29T02:14:53.765Z,0
2019-01-29T02:15:34.358Z,0
2019-01-29T02:16:14.956Z,0
2019-01-29T02:16:55.562Z,0
2019-01-29T02:17:36.158Z,0
2019-01-29T02:18:16.777Z,0
2019-01-29T02:18:57.378Z,0
2019-01-29T02:19:37.984Z,0
2019-01-29T02:20:18.584Z,0
2019-01-29T02:20:59.178Z,0
2019-01-29T02:21:39.804Z,0
2019-01-29T02:22:20.418Z,0
2019-01-29T02:23:07.696Z,0
2019-01-29T02:23:41.642Z,0
2019-01-29T02:24:22.276Z,0
2019-01-29T02:25:02.871Z,0
2019-01-29T02:25:43.468Z,0
2019-01-29T02:26:24.074Z,0
2019-01-29T02:27:04.702Z,0
2019-01-29T02:27:45.278Z,0
2019-01-29T02:28:25.891Z,0
2019-01-29T02:29:06.480Z,0
2019-01-29T02:29:47.108Z,0
2019-01-29T02:30:27.694Z,0
2019-01-29T02:31:08.306Z,0
2019-01-29T02:31:48.920Z,0
2019-01-29T02:32:29.508Z,0
2019-01-29T02:33:10.122Z,0
2019-01-29T02:33:50.722Z,0
2019-01-29T02:34:31.327Z,0
2019-01-29T02:35:11.962Z,0
2019-01-29T02:35:52.552Z,0
2019-01-29T02:36:33.174Z,0
2019-01-29T02:37:13.774Z,0
2019-01-29T02:37:54.372Z,0
2019-01-29T02:38:34.979Z,0
2019-01-29T02:39:15.570Z,0
2019-01-29T02:39:56.168Z,0
2019-01-29T02:40:36.778Z,0
2019-01-29T02:41:17.408Z,0
2019-01-29T02:41:58.129Z,0
2019-01-29T02:42:39.689Z,0
2019-01-29T02:43:20.314Z,0
2019-01-29T02:44:00.968Z,0
2019-01-29T02:44:41.569Z,0
2019-01-29T02:45:22.180Z,0
2019-01-29T02:46:02.890Z,0
2019-01-29T02:46:43.465Z,0
2019-01-29T02:47:24.086Z,0
2019-01-29T02:48:04.692Z,0
2019-01-29T02:48:45.293Z,0
2019-01-29T02:49:25.954Z,0
2019-01-29T02:50:06.541Z,0
2019-01-29T02:50:47.150Z,0
2019-01-29T02:51:27.800Z,0
2019-01-29T02:52:08.455Z,0
2019-01-29T02:52:49.008Z,0
2019-01-29T02:53:29.602Z,0
2019-01-29T02:54:10.200Z,0
2019-01-29T02:54:50.788Z,0
2019-01-29T02:55:31.384Z,0
2019-01-29T02:56:11.978Z,0
2019-01-29T02:56:52.628Z,0
2019-01-29T02:57:33.324Z,0
2019-01-29T02:58:13.925Z,0
2019-01-29T02:58:55.349Z,0
2019-01-29T02:59:35.998Z,0
2019-01-29T03:00:16.602Z,0
2019-01-29T03:00:57.200Z,0
2019-01-29T03:01:37.812Z,0
2019-01-29T03:02:18.437Z,0
2019-01-29T03:02:59.053Z,0
2019-01-29T03:03:39.666Z,0
2019-01-29T03:04:20.266Z,0
2019-01-29T03:05:00.866Z,0
2019-01-29T03:05:41.508Z,0
2019-01-29T03:06:22.132Z,0
2019-01-29T03:07:02.755Z,0
2019-01-29T03:07:43.389Z,0
2019-01-29T03:08:24.025Z,0
2019-01-29T03:09:04.620Z,0
2019-01-29T03:09:45.246Z,0
2019-01-29T03:10:25.880Z,0
2019-01-29T03:11:06.552Z,0
2019-01-29T03:11:47.162Z,0
2019-01-29T03:12:27.813Z,0
2019-01-29T03:13:08.413Z,0
2019-01-29T03:13:49.044Z,0
2019-01-29T03:14:29.669Z,0
2019-01-29T03:15:10.298Z,0
2019-01-29T03:15:50.923Z,0
2019-01-29T03:16:31.568Z,0
2019-01-29T03:17:12.721Z,0
2019-01-29T03:17:53.325Z,0
2019-01-29T03:18:33.942Z,0
2019-01-29T03:19:14.571Z,0
2019-01-29T03:19:55.172Z,0
2019-01-29T03:20:35.781Z,0
2019-01-29T03:21:16.378Z,0
2019-01-29T03:21:57.000Z,0
2019-01-29T03:22:37.608Z,0
2019-01-29T03:23:26.991Z,0
2019-01-29T03:23:58.838Z,0
2019-01-29T03:24:39.470Z,0
2019-01-29T03:25:20.101Z,0
2019-01-29T03:26:00.715Z,0
2019-01-29T03:26:41.329Z,0
2019-01-29T03:27:21.940Z,0
2019-01-29T03:28:02.561Z,0
2019-01-29T03:28:43.162Z,0
2019-01-29T03:29:23.789Z,0
2019-01-29T03:30:04.401Z,0
2019-01-29T03:30:45.028Z,0
2019-01-29T03:31:25.678Z,0
2019-01-29T03:32:06.298Z,0
2019-01-29T03:32:46.928Z,0
2019-01-29T03:33:27.550Z,0
2019-01-29T03:34:08.171Z,0
2019-01-29T03:34:48.825Z,0
2019-01-29T03:35:29.451Z,0
2019-01-29T03:36:10.085Z,0
2019-01-29T03:36:50.685Z,0
2019-01-29T03:37:31.304Z,0
2019-01-29T03:38:11.918Z,0
2019-01-29T03:38:52.541Z,0
2019-01-29T03:39:33.169Z,0
2019-01-29T03:40:13.805Z,0
2019-01-29T03:40:54.466Z,0
2019-01-29T03:41:35.098Z,0
2019-01-29T03:42:15.716Z,0
2019-01-29T03:42:56.356Z,0
2019-01-29T03:43:36.970Z,0
2019-01-29T03:44:17.566Z,0
2019-01-29T03:44:58.186Z,0
2019-01-29T03:45:38.803Z,0
2019-01-29T03:46:19.426Z,0
2019-01-29T03:47:00.045Z,0
2019-01-29T03:47:40.650Z,0
2019-01-29T03:48:21.272Z,0
2019-01-29T03:49:01.930Z,0
2019-01-29T03:49:42.515Z,0
2019-01-29T03:50:23.141Z,0
2019-01-29T03:51:03.746Z,0
2019-01-29T03:51:44.372Z,0
2019-01-29T03:52:25.032Z,0
2019-01-29T03:53:05.713Z,0
2019-01-29T03:53:46.304Z,0
2019-01-29T03:54:26.907Z,0
2019-01-29T03:55:07.525Z,0
2019-01-29T03:55:48.121Z,0
2019-01-29T03:56:28.716Z,0
2019-01-29T03:57:09.322Z,0
2019-01-29T03:57:49.930Z,0
2019-01-29T03:58:30.534Z,0
2019-01-29T03:59:11.120Z,0
2019-01-29T03:59:51.789Z,0
2019-01-29T04:00:32.396Z,0
2019-01-29T04:01:13.012Z,0
2019-01-29T04:01:53.603Z,0
2019-01-29T04:02:34.204Z,0
2019-01-29T04:03:14.785Z,0
2019-01-29T04:03:55.393Z,0
2019-01-29T04:04:35.985Z,0
2019-01-29T04:05:16.607Z,0
2019-01-29T04:05:57.215Z,0
2019-01-29T04:06:37.822Z,0
2019-01-29T04:07:18.450Z,0
2019-01-29T04:07:59.066Z,0
2019-01-29T04:08:39.659Z,0
2019-01-29T04:09:20.264Z,0
2019-01-29T04:10:00.867Z,0
2019-01-29T04:10:41.471Z,0
2019-01-29T04:11:22.082Z,0
2019-01-29T04:12:02.684Z,0
2019-01-29T04:12:43.299Z,0
2019-01-29T04:13:23.902Z,0
2019-01-29T04:14:04.516Z,0
2019-01-29T04:14:45.108Z,0
2019-01-29T04:15:25.720Z,0
2019-01-29T04:16:06.346Z,0
2019-01-29T04:16:46.944Z,0
2019-01-29T04:17:27.556Z,0
2019-01-29T04:18:08.143Z,0
2019-01-29T04:18:48.750Z,0
2019-01-29T04:19:29.352Z,0
2019-01-29T04:20:09.952Z,0
2019-01-29T04:20:50.549Z,0
2019-01-29T04:21:31.132Z,0
2019-01-29T04:22:11.722Z,0
2019-01-29T04:22:52.325Z,0
2019-01-29T04:23:32.929Z,0
2019-01-29T04:24:13.519Z,0
2019-01-29T04:24:54.117Z,0
2019-01-29T04:25:34.710Z,0
2019-01-29T04:26:15.315Z,0
2019-01-29T04:26:55.914Z,0
2019-01-29T04:27:36.512Z,0
2019-01-29T04:28:17.109Z,0
2019-01-29T04:28:57.716Z,0
2019-01-29T04:29:38.317Z,0
2019-01-29T04:30:18.948Z,0
2019-01-29T04:30:59.526Z,0
2019-01-29T04:31:40.137Z,0
2019-01-29T04:32:20.740Z,0
2019-01-29T04:33:01.350Z,0
2019-01-29T04:33:41.940Z,0
2019-01-29T04:34:22.543Z,0
2019-01-29T04:35:03.153Z,0
2019-01-29T04:35:43.766Z,0
2019-01-29T04:36:24.374Z,0
2019-01-29T04:37:04.993Z,0
2019-01-29T04:37:45.602Z,0
2019-01-29T04:38:26.205Z,0
2019-01-29T04:39:06.799Z,0
2019-01-29T04:39:47.397Z,0
2019-01-29T04:40:27.989Z,0
2019-01-29T04:41:08.585Z,0
2019-01-29T04:41:49.187Z,0
2019-01-29T04:42:29.826Z,0
2019-01-29T04:43:10.449Z,0
2019-01-29T04:43:51.065Z,0
2019-01-29T04:44:31.729Z,0
2019-01-29T04:45:12.311Z,0
2019-01-29T04:45:52.916Z,0
2019-01-29T04:46:33.539Z,0
2019-01-29T04:47:14.149Z,0
2019-01-29T04:47:54.759Z,0
2019-01-29T04:48:35.357Z,0
2019-01-29T04:49:15.981Z,0
2019-01-29T04:49:56.583Z,0
2019-01-29T04:50:37.175Z,0
2019-01-29T04:51:17.786Z,0
2019-01-29T04:51:58.405Z,0
2019-01-29T04:52:39.017Z,0
2019-01-29T04:53:19.623Z,0
2019-01-29T04:54:00.250Z,0
2019-01-29T04:54:40.859Z,0
2019-01-29T04:55:21.459Z,0
2019-01-29T04:56:02.073Z,0
2019-01-29T04:56:42.685Z,0
2019-01-29T04:57:23.315Z,0
2019-01-29T04:58:03.925Z,0
2019-01-29T04:58:44.588Z,0
2019-01-29T04:59:25.233Z,0
2019-01-29T05:00:05.885Z,0
2019-01-29T05:00:46.501Z,0
2019-01-29T05:01:27.108Z,0
2019-01-29T05:02:07.771Z,0
2019-01-29T05:02:48.377Z,0
2019-01-29T05:03:28.995Z,0
2019-01-29T05:04:09.609Z,0
2019-01-29T05:04:50.219Z,0
2019-01-29T05:05:30.836Z,0
2019-01-29T05:06:11.449Z,0
2019-01-29T05:06:52.065Z,0
2019-01-29T05:07:32.681Z,0
2019-01-29T05:08:13.285Z,0
2019-01-29T05:08:53.907Z,0
2019-01-29T05:09:34.523Z,0
2019-01-29T05:10:15.139Z,0
2019-01-29T05:10:55.751Z,0
2019-01-29T05:11:36.355Z,0
2019-01-29T05:12:16.967Z,0
2019-01-29T05:12:57.579Z,0
2019-01-29T05:13:38.194Z,0
2019-01-29T05:14:18.803Z,0
2019-01-29T05:14:59.425Z,0
2019-01-29T05:15:40.041Z,0
2019-01-29T05:16:20.663Z,0
2019-01-29T05:17:01.263Z,0
2019-01-29T05:17:41.879Z,0
2019-01-29T05:18:22.502Z,0
2019-01-29T05:19:03.104Z,0
2019-01-29T05:19:43.713Z,0
2019-01-29T05:20:24.333Z,0
2019-01-29T05:21:04.939Z,0
2019-01-29T05:21:45.551Z,0
2019-01-29T05:22:26.169Z,0
2019-01-29T05:23:06.784Z,0
2019-01-29T05:23:47.394Z,0
2019-01-29T05:24:27.995Z,0
2019-01-29T05:25:08.597Z,0
2019-01-29T05:25:49.213Z,0
2019-01-29T05:26:29.817Z,0
2019-01-29T05:27:10.441Z,0
2019-01-29T05:27:51.047Z,0
2019-01-29T05:28:31.715Z,0
2019-01-29T05:29:12.379Z,0
2019-01-29T05:29:52.987Z,0
2019-01-29T05:30:33.605Z,0
2019-01-29T05:31:14.237Z,0
2019-01-29T05:31:54.850Z,0
2019-01-29T05:32:35.457Z,0
2019-01-29T05:33:16.063Z,0
2019-01-29T05:33:56.676Z,0
2019-01-29T05:34:37.289Z,0
2019-01-29T05:35:17.927Z,0
2019-01-29T05:35:58.517Z,0
2019-01-29T05:36:39.179Z,0
2019-01-29T05:37:19.797Z,0
2019-01-29T05:38:00.429Z,0
2019-01-29T05:38:41.041Z,0
2019-01-29T05:39:21.664Z,0
2019-01-29T05:40:02.287Z,0
2019-01-29T05:40:42.907Z,0
2019-01-29T05:41:23.574Z,0
2019-01-29T05:42:04.199Z,0
2019-01-29T05:42:44.797Z,0
2019-01-29T05:43:25.423Z,0
2019-01-29T05:44:06.043Z,0
2019-01-29T05:44:46.659Z,0
2019-01-29T05:45:27.376Z,0
2019-01-29T05:46:07.905Z,0
2019-01-29T05:46:48.517Z,0
2019-01-29T05:47:29.144Z,0
2019-01-29T05:48:09.757Z,0
2019-01-29T05:48:50.443Z,0
2019-01-29T05:49:31.118Z,0
2019-01-29T05:50:11.710Z,0
2019-01-29T05:50:52.297Z,0
2019-01-29T05:51:32.899Z,0
2019-01-29T05:52:13.495Z,0
2019-01-29T05:52:54.101Z,0
2019-01-29T05:53:34.703Z,0
2019-01-29T05:54:16.310Z,0
2019-01-29T05:54:55.943Z,0
2019-01-29T05:55:36.649Z,0
2019-01-29T05:56:17.275Z,0
2019-01-29T05:56:57.926Z,0
2019-01-29T05:59:28.673Z,0
2019-01-29T06:00:09.300Z,0
2019-01-29T06:00:49.937Z,0
2019-01-29T06:01:30.557Z,0
2019-01-29T06:02:11.195Z,0
2019-01-29T06:02:51.800Z,0
2019-01-29T06:03:32.419Z,0
2019-01-29T06:04:13.041Z,0
2019-01-29T06:04:53.662Z,0
2019-01-29T06:05:34.263Z,0
2019-01-29T06:06:14.899Z,0
2019-01-29T06:06:55.521Z,0
2019-01-29T06:07:36.126Z,0
2019-01-29T06:08:16.747Z,0
2019-01-29T06:08:57.363Z,0
2019-01-29T06:09:37.947Z,0
2019-01-29T06:10:18.585Z,0
2019-01-29T06:10:59.199Z,0
2019-01-29T06:11:39.829Z,0
2019-01-29T06:12:20.439Z,0
2019-01-29T06:13:01.039Z,0
2019-01-29T06:13:41.639Z,0
2019-01-29T06:14:22.258Z,0
2019-01-29T06:15:02.885Z,0
2019-01-29T06:15:43.473Z,0
2019-01-29T06:16:24.097Z,0
2019-01-29T06:17:04.709Z,0
2019-01-29T06:17:45.333Z,0
2019-01-29T06:18:25.929Z,0
2019-01-29T06:19:06.546Z,0
2019-01-29T06:19:47.175Z,0
2019-01-29T06:20:27.789Z,0
2019-01-29T06:21:08.423Z,0
2019-01-29T06:21:49.041Z,0
2019-01-29T06:22:29.663Z,0
2019-01-29T06:23:10.295Z,0
2019-01-29T06:23:50.937Z,0
2019-01-29T06:24:31.539Z,0
2019-01-29T06:25:12.178Z,0
2019-01-29T06:25:52.781Z,0
2019-01-29T06:26:33.403Z,0
2019-01-29T06:27:14.019Z,0
2019-01-29T06:27:54.659Z,0
2019-01-29T06:28:35.255Z,0
2019-01-29T06:29:15.927Z,0
2019-01-29T06:29:56.543Z,0
2019-01-29T06:30:37.159Z,0
2019-01-29T06:31:17.772Z,0
2019-01-29T06:31:58.390Z,0
2019-01-29T06:32:38.979Z,0
2019-01-29T06:33:19.575Z,0
2019-01-29T06:34:00.219Z,0
2019-01-29T06:34:40.839Z,0
2019-01-29T06:35:21.441Z,0
2019-01-29T06:36:02.073Z,0
2019-01-29T06:36:42.649Z,0
2019-01-29T06:37:23.323Z,0
2019-01-29T06:38:03.939Z,0
2019-01-29T06:38:44.569Z,0
2019-01-29T06:39:25.226Z,0
2019-01-29T06:40:05.976Z,0
2019-01-29T06:40:46.642Z,0
2019-01-29T06:41:27.257Z,0
2019-01-29T06:42:07.907Z,0
2019-01-29T06:42:48.543Z,0
2019-01-29T06:43:29.119Z,0
2019-01-29T06:44:09.735Z,0
2019-01-29T06:44:50.385Z,0
2019-01-29T06:45:31.041Z,0
2019-01-29T06:46:11.775Z,0
2019-01-29T06:46:52.459Z,0
2019-01-29T06:47:33.067Z,0
2019-01-29T06:48:13.687Z,0
2019-01-29T06:48:54.319Z,0
2019-01-29T06:49:34.956Z,0
2019-01-29T06:50:15.565Z,0
2019-01-29T06:50:56.182Z,0
2019-01-29T06:51:36.870Z,0
2019-01-29T06:52:17.478Z,0
2019-01-29T06:52:58.110Z,0
2019-01-29T06:53:38.729Z,0
2019-01-29T06:54:19.343Z,0
2019-01-29T06:54:59.972Z,0
2019-01-29T06:55:40.613Z,0
2019-01-29T06:56:21.283Z,0
2019-01-29T06:57:01.985Z,0
2019-01-29T06:57:42.485Z,0
2019-01-29T06:58:23.175Z,0
2019-01-29T06:59:03.811Z,0
2019-01-29T06:59:44.443Z,0
2019-01-29T07:00:25.051Z,0
2019-01-29T07:01:05.661Z,0
2019-01-29T07:01:46.293Z,0
2019-01-29T07:02:26.895Z,0
2019-01-29T07:03:07.506Z,0
2019-01-29T07:03:48.165Z,0
2019-01-29T07:04:28.817Z,0
2019-01-29T07:05:09.442Z,0
2019-01-29T07:05:50.053Z,0
2019-01-29T07:06:30.677Z,0
2019-01-29T07:07:11.280Z,0
2019-01-29T07:07:52.027Z,0
2019-01-29T07:08:32.649Z,0
2019-01-29T07:09:13.283Z,0
2019-01-29T07:09:53.881Z,0
2019-01-29T07:10:34.480Z,0
2019-01-29T07:11:15.098Z,0
2019-01-29T07:11:55.719Z,0
2019-01-29T07:12:36.315Z,0
2019-01-29T07:13:16.949Z,0
2019-01-29T07:13:57.567Z,0
2019-01-29T07:14:38.201Z,0
2019-01-29T07:15:18.831Z,0
2019-01-29T07:15:59.433Z,0
2019-01-29T07:16:40.078Z,0
2019-01-29T07:17:20.686Z,0
2019-01-29T07:18:01.335Z,0
2019-01-29T07:18:41.954Z,0
2019-01-29T07:19:22.565Z,0
2019-01-29T07:20:03.173Z,0
2019-01-29T07:20:43.880Z,0
2019-01-29T07:21:24.475Z,0
2019-01-29T07:22:05.091Z,0
2019-01-29T07:22:45.711Z,0
2019-01-29T07:23:26.325Z,0
2019-01-29T07:24:06.933Z,0
2019-01-29T07:24:47.532Z,0
2019-01-29T07:25:28.155Z,0
2019-01-29T07:26:08.783Z,0
2019-01-29T07:26:49.449Z,0
2019-01-29T07:27:30.059Z,0
2019-01-29T07:28:10.662Z,0
2019-01-29T07:28:51.269Z,0
2019-01-29T07:29:31.867Z,0
2019-01-29T07:30:12.477Z,0
2019-01-29T07:30:53.088Z,0
2019-01-29T07:31:33.694Z,0
2019-01-29T07:32:14.315Z,0
2019-01-29T07:32:54.933Z,0
2019-01-29T07:33:35.557Z,0
2019-01-29T07:34:16.179Z,0
2019-01-29T07:34:56.775Z,0
2019-01-29T07:35:37.383Z,0
2019-01-29T07:36:17.989Z,0
2019-01-29T07:36:58.598Z,0
2019-01-29T07:37:39.231Z,0
2019-01-29T07:38:19.829Z,0
2019-01-29T07:39:00.475Z,0
2019-01-29T07:39:41.089Z,0
2019-01-29T07:40:21.701Z,0
2019-01-29T07:41:02.345Z,0
2019-01-29T07:41:43.031Z,0
2019-01-29T07:42:23.644Z,0
2019-01-29T07:43:04.301Z,0
2019-01-29T07:43:44.919Z,0
2019-01-29T07:44:25.556Z,0
2019-01-29T07:45:06.197Z,0
2019-01-29T07:45:46.851Z,0
2019-01-29T07:46:27.463Z,0
2019-01-29T07:47:08.067Z,0
2019-01-29T07:47:48.695Z,0
2019-01-29T07:48:29.324Z,0
2019-01-29T07:49:09.936Z,0
2019-01-29T07:49:50.529Z,0
2019-01-29T07:50:31.120Z,0
2019-01-29T07:51:11.767Z,0
2019-01-29T07:51:52.388Z,0
2019-01-29T07:52:32.995Z,0
2019-01-29T07:53:13.604Z,0
2019-01-29T07:53:54.200Z,0
2019-01-29T07:54:34.834Z,0
2019-01-29T07:55:15.430Z,0
2019-01-29T07:55:56.024Z,0
2019-01-29T07:56:36.645Z,0
2019-01-29T07:57:17.289Z,0
2019-01-29T07:57:57.881Z,0
2019-01-29T07:58:38.503Z,0
2019-01-29T07:59:32.277Z,0
2019-01-29T07:59:59.722Z,0
2019-01-29T08:00:42.188Z,0
2019-01-29T08:01:20.913Z,0
2019-01-29T08:02:01.558Z,0
2019-01-29T08:02:42.184Z,0
2019-01-29T08:03:22.805Z,0
2019-01-29T08:04:03.422Z,0
2019-01-29T08:04:44.019Z,0
2019-01-29T08:05:24.632Z,0
2019-01-29T08:06:05.237Z,0
2019-01-29T08:06:45.843Z,0
2019-01-29T08:07:26.483Z,0
2019-01-29T08:08:07.120Z,0
2019-01-29T08:08:47.719Z,0
2019-01-29T08:09:28.332Z,0
2019-01-29T08:10:08.943Z,0
2019-01-29T08:10:49.551Z,0
2019-01-29T08:11:30.173Z,0
2019-01-29T08:12:11.203Z,0
2019-01-29T08:12:51.403Z,0
2019-01-29T08:13:32.001Z,5
2019-01-29T08:14:12.597Z,5
2019-01-29T08:14:53.204Z,5
2019-01-29T08:15:33.812Z,5
2019-01-29T08:16:15.550Z,5
2019-01-29T08:16:55.028Z,5
2019-01-29T08:17:35.656Z,5
2019-01-29T08:18:16.273Z,5
2019-01-29T08:18:56.871Z,5
2019-01-29T08:19:37.464Z,5
2019-01-29T08:20:18.067Z,5
2019-01-29T08:20:58.691Z,5
2019-01-29T08:21:39.283Z,5
2019-01-29T08:22:19.885Z,5
2019-01-29T08:23:00.589Z,5
2019-01-29T08:23:41.187Z,5
2019-01-29T08:24:21.794Z,5
2019-01-29T08:25:02.464Z,5
2019-01-29T08:25:47.723Z,5
2019-01-29T08:26:23.660Z,5
2019-01-29T08:27:04.268Z,5
2019-01-29T08:27:44.886Z,5
2019-01-29T08:28:25.500Z,5
2019-01-29T08:29:06.107Z,5
2019-01-29T08:29:46.749Z,5
2019-01-29T08:30:27.369Z,5
2019-01-29T08:31:07.980Z,5
2019-01-29T08:31:48.611Z,5
2019-01-29T08:32:29.219Z,5
2019-01-29T08:33:09.822Z,5
2019-01-29T08:33:50.419Z,5
2019-01-29T08:34:31.066Z,5
2019-01-29T08:35:11.665Z,5
2019-01-29T08:35:52.275Z,5
2019-01-29T08:36:32.906Z,5
2019-01-29T08:37:13.511Z,5
2019-01-29T08:37:54.171Z,5
2019-01-29T08:38:34.780Z,5
2019-01-29T08:39:15.392Z,5
2019-01-29T08:39:55.992Z,5
2019-01-29T08:40:36.583Z,5
2019-01-29T08:41:17.192Z,5
2019-01-29T08:41:57.803Z,5
2019-01-29T08:42:38.401Z,5
2019-01-29T08:43:19.023Z,5
2019-01-29T08:43:59.645Z,5
2019-01-29T08:44:40.258Z,5
2019-01-29T08:45:20.862Z,5
2019-01-29T08:46:01.480Z,5
2019-01-29T08:46:42.099Z,5
2019-01-29T08:47:22.715Z,5
2019-01-29T08:48:03.303Z,5
2019-01-29T08:48:43.928Z,5
2019-01-29T08:49:24.522Z,5
2019-01-29T08:50:05.170Z,5
2019-01-29T08:50:45.768Z,5
2019-01-29T08:51:26.395Z,5
2019-01-29T08:52:07.000Z,5
2019-01-29T08:52:47.605Z,5
2019-01-29T08:53:28.212Z,5
2019-01-29T08:54:08.825Z,5
2019-01-29T08:54:49.434Z,5
2019-01-29T08:55:30.048Z,5
2019-01-29T08:56:10.668Z,5
2019-01-29T08:56:51.263Z,5
2019-01-29T08:57:31.861Z,5
2019-01-29T08:58:12.501Z,5
2019-01-29T08:58:53.115Z,5
2019-01-29T08:59:33.729Z,5
2019-01-29T09:00:14.866Z,5
2019-01-29T09:00:55.004Z,5
2019-01-29T09:01:35.662Z,5
2019-01-29T09:02:16.238Z,5
2019-01-29T09:02:56.837Z,5
2019-01-29T09:03:37.458Z,5
2019-01-29T09:04:18.088Z,5
2019-01-29T09:04:58.719Z,5
2019-01-29T09:05:39.309Z,5
2019-01-29T09:06:19.920Z,5
2019-01-29T09:07:00.515Z,5
2019-01-29T09:07:41.138Z,5
2019-01-29T09:08:21.736Z,5
2019-01-29T09:09:02.346Z,5
2019-01-29T09:09:42.974Z,5
2019-01-29T09:10:23.592Z,10
2019-01-29T09:11:04.224Z,10
2019-01-29T09:11:44.836Z,10
2019-01-29T09:12:25.446Z,10
2019-01-29T09:13:06.053Z,10
2019-01-29T09:13:46.718Z,10
2019-01-29T09:14:27.313Z,10
2019-01-29T09:15:07.932Z,10
2019-01-29T09:15:48.557Z,10
2019-01-29T09:16:29.182Z,10
2019-01-29T09:17:09.780Z,15
2019-01-29T09:17:50.408Z,15
2019-01-29T09:18:31.191Z,15
2019-01-29T09:19:11.795Z,15
2019-01-29T09:19:52.391Z,15
2019-01-29T09:20:33.005Z,15
2019-01-29T09:21:13.619Z,15
2019-01-29T09:21:54.243Z,15
2019-01-29T09:22:34.854Z,15
2019-01-29T09:23:15.470Z,15
2019-01-29T09:23:56.070Z,15
2019-01-29T09:24:36.677Z,15
2019-01-29T09:25:19.986Z,15
2019-01-29T09:25:57.877Z,15
2019-01-29T09:26:38.480Z,15
2019-01-29T09:27:19.075Z,20
2019-01-29T09:27:59.706Z,15
2019-01-29T09:28:40.326Z,20
2019-01-29T09:29:20.933Z,20
2019-01-29T09:30:01.551Z,15
2019-01-29T09:30:43.923Z,20
2019-01-29T09:31:22.804Z,15
2019-01-29T09:32:03.414Z,20
2019-01-29T09:32:44.017Z,20
2019-01-29T09:33:24.643Z,20
2019-01-29T09:34:05.274Z,20
2019-01-29T09:34:45.944Z,20
2019-01-29T09:35:26.575Z,25
2019-01-29T09:36:07.195Z,30
2019-01-29T09:36:47.810Z,30
2019-01-29T09:37:28.426Z,25
2019-01-29T09:38:09.087Z,25
2019-01-29T09:38:49.693Z,25
2019-01-29T09:39:30.295Z,25
2019-01-29T09:40:11.004Z,25
2019-01-29T09:40:51.630Z,30
2019-01-29T09:41:32.220Z,25
2019-01-29T09:42:12.880Z,25
2019-01-29T09:42:53.472Z,25
2019-01-29T09:43:34.092Z,25
2019-01-29T09:44:14.709Z,20
2019-01-29T09:44:55.333Z,20
2019-01-29T09:45:36.021Z,20
2019-01-29T09:46:16.599Z,20
2019-01-29T09:46:57.211Z,20
2019-01-29T09:47:37.817Z,20
2019-01-29T09:48:18.436Z,20
2019-01-29T09:48:59.056Z,20
2019-01-29T09:49:39.697Z,20
2019-01-29T09:50:20.302Z,20
2019-01-29T09:51:00.902Z,20
2019-01-29T09:51:41.514Z,25
2019-01-29T09:52:22.109Z,30
2019-01-29T09:53:02.728Z,25
2019-01-29T09:53:43.405Z,25
2019-01-29T09:54:23.934Z,35
2019-01-29T09:55:04.544Z,40
2019-01-29T09:55:45.176Z,35
2019-01-29T09:56:25.808Z,30
2019-01-29T09:57:06.429Z,35
2019-01-29T09:57:47.029Z,35
2019-01-29T09:58:27.625Z,30
2019-01-29T09:59:08.244Z,25
2019-01-29T09:59:48.876Z,25
2019-01-29T10:00:29.492Z,30
2019-01-29T10:01:10.110Z,20
2019-01-29T10:01:50.717Z,20
2019-01-29T10:02:31.332Z,20